sensor_id;sensor_type;location;lat;lon;timestamp;pressure;altitude;pressure_sealevel;temperature;humidity
63739;BME280;68816;45.558;10.070;2023-05-19T00:01:58;100158.28;;;17.38;64.18
63739;BME280;68816;45.558;10.070;2023-05-19T00:04:30;100155.78;;;17.41;64.15
63739;BME280;68816;45.558;10.070;2023-05-19T00:06:59;100157.75;;;17.41;63.45
63739;BME280;68816;45.558;10.070;2023-05-19T00:09:25;100152.44;;;17.29;64.26
63739;BME280;68816;45.558;10.070;2023-05-19T00:11:51;100136.19;;;17.31;64.60
63739;BME280;68816;45.558;10.070;2023-05-19T00:14:17;100149.34;;;17.46;64.34
63739;BME280;68816;45.558;10.070;2023-05-19T00:16:42;100154.66;;;17.32;64.88
63739;BME280;68816;45.558;10.070;2023-05-19T00:19:08;100080.25;;;16.96;64.24
63739;BME280;68816;45.558;10.070;2023-05-19T00:21:35;100149.63;;;17.44;63.59
63739;BME280;68816;45.558;10.070;2023-05-19T00:24:02;100154.09;;;17.40;65.60
63739;BME280;68816;45.558;10.070;2023-05-19T00:26:28;100142.34;;;17.33;63.78
63739;BME280;68816;45.558;10.070;2023-05-19T00:28:53;100128.66;;;17.32;65.32
63739;BME280;68816;45.558;10.070;2023-05-19T00:31:19;100133.69;;;17.35;63.45
63739;BME280;68816;45.558;10.070;2023-05-19T00:33:44;100149.06;;;17.37;64.04
63739;BME280;68816;45.558;10.070;2023-05-19T00:36:10;100151.00;;;17.42;63.76
63739;BME280;68816;45.558;10.070;2023-05-19T00:38:36;100126.97;;;17.31;63.22
63739;BME280;68816;45.558;10.070;2023-05-19T00:41:03;100152.69;;;17.48;62.82
63739;BME280;68816;45.558;10.070;2023-05-19T00:43:29;100140.13;;;17.45;63.16
63739;BME280;68816;45.558;10.070;2023-05-19T00:45:58;100144.59;;;17.41;63.41
63739;BME280;68816;45.558;10.070;2023-05-19T00:48:24;100120.84;;;17.29;64.81
63739;BME280;68816;45.558;10.070;2023-05-19T00:50:50;100137.31;;;17.30;64.63
63739;BME280;68816;45.558;10.070;2023-05-19T00:53:19;100137.31;;;17.30;65.97
63739;BME280;68816;45.558;10.070;2023-05-19T00:55:46;100136.19;;;17.21;65.41
63739;BME280;68816;45.558;10.070;2023-05-19T00:58:13;100110.47;;;17.19;65.27
63739;BME280;68816;45.558;10.070;2023-05-19T01:00:40;100099.00;;;17.10;66.36
63739;BME280;68816;45.558;10.070;2023-05-19T01:03:07;100128.06;;;17.24;65.90
63739;BME280;68816;45.558;10.070;2023-05-19T01:05:39;100125.00;;;17.21;66.60
63739;BME280;68816;45.558;10.070;2023-05-19T01:08:06;100125.00;;;17.26;67.08
63739;BME280;68816;45.558;10.070;2023-05-19T01:10:32;100106.56;;;17.15;66.00
63739;BME280;68816;45.558;10.070;2023-05-19T01:12:58;100116.03;;;16.94;67.11
63739;BME280;68816;45.558;10.070;2023-05-19T01:15:25;100109.63;;;17.08;66.63
63739;BME280;68816;45.558;10.070;2023-05-19T01:17:57;100123.63;;;17.23;67.25
63739;BME280;68816;45.558;10.070;2023-05-19T01:20:35;100126.66;;;17.02;66.88
63739;BME280;68816;45.558;10.070;2023-05-19T01:31:30;100118.84;;;17.09;67.00
63739;BME280;68816;45.558;10.070;2023-05-19T01:33:58;100099.56;;;16.97;67.02
63739;BME280;68816;45.558;10.070;2023-05-19T01:36:25;100116.31;;;17.07;67.23
63739;BME280;68816;45.558;10.070;2023-05-19T01:38:55;100124.69;;;17.02;67.13
63739;BME280;68816;45.558;10.070;2023-05-19T01:41:23;100066.81;;;16.77;67.37
63739;BME280;68816;45.558;10.070;2023-05-19T01:43:49;100127.47;;;16.92;68.46
63739;BME280;68816;45.558;10.070;2023-05-19T01:46:16;100122.16;;;16.86;68.39
63739;BME280;68816;45.558;10.070;2023-05-19T01:48:45;100117.69;;;16.84;69.09
63739;BME280;68816;45.558;10.070;2023-05-19T01:51:11;100089.69;;;16.59;68.86
63739;BME280;68816;45.558;10.070;2023-05-19T01:53:36;100117.69;;;16.84;68.07
63739;BME280;68816;45.558;10.070;2023-05-19T01:56:03;100117.41;;;16.96;67.51
63739;BME280;68816;45.558;10.070;2023-05-19T02:07:02;100126.09;;;17.00;61.83
63739;BME280;68816;45.558;10.070;2023-05-19T02:09:39;100129.72;;;16.95;62.30
63739;BME280;68816;45.558;10.070;2023-05-19T02:12:35;100128.31;;;16.88;60.92
63739;BME280;68816;45.558;10.070;2023-05-19T02:15:12;100125.28;;;16.99;60.75
63739;BME280;68816;45.558;10.070;2023-05-19T02:17:42;100123.31;;;17.10;61.64
63739;BME280;68816;45.558;10.070;2023-05-19T02:20:12;100122.47;;;17.09;61.56
63739;BME280;68816;45.558;10.070;2023-05-19T02:22:37;100112.16;;;17.10;59.82
63739;BME280;68816;45.558;10.070;2023-05-19T02:25:04;100103.75;;;17.00;59.80
63739;BME280;68816;45.558;10.070;2023-05-19T02:27:30;100114.38;;;17.13;60.60
63739;BME280;68816;45.558;10.070;2023-05-19T02:29:57;100114.09;;;17.04;60.97
63739;BME280;68816;45.558;10.070;2023-05-19T02:32:22;100108.50;;;17.09;61.06
63739;BME280;68816;45.558;10.070;2023-05-19T02:34:48;100110.19;;;17.00;62.01
63739;BME280;68816;45.558;10.070;2023-05-19T02:37:14;100104.88;;;17.09;63.23
63739;BME280;68816;45.558;10.070;2023-05-19T02:39:40;100112.97;;;17.05;64.29
63739;BME280;68816;45.558;10.070;2023-05-19T02:42:06;100112.16;;;17.05;64.67
63739;BME280;68816;45.558;10.070;2023-05-19T02:44:31;100113.78;;;17.01;65.00
63739;BME280;68816;45.558;10.070;2023-05-19T02:46:57;100113.81;;;17.06;65.31
63739;BME280;68816;45.558;10.070;2023-05-19T02:49:22;100067.66;;;16.68;65.80
63739;BME280;68816;45.558;10.070;2023-05-19T02:51:48;100114.09;;;16.94;65.22
63739;BME280;68816;45.558;10.070;2023-05-19T02:54:14;100101.50;;;16.92;66.49
63739;BME280;68816;45.558;10.070;2023-05-19T02:56:39;100108.75;;;16.93;66.24
63739;BME280;68816;45.558;10.070;2023-05-19T02:59:05;100101.75;;;16.85;67.82
63739;BME280;68816;45.558;10.070;2023-05-19T03:01:30;100111.56;;;16.93;66.73
63739;BME280;68816;45.558;10.070;2023-05-19T03:03:59;100107.94;;;16.92;67.30
63739;BME280;68816;45.558;10.070;2023-05-19T03:06:24;100107.94;;;16.97;67.23
63739;BME280;68816;45.558;10.070;2023-05-19T03:08:50;100106.25;;;16.96;67.17
63739;BME280;68816;45.558;10.070;2023-05-19T03:11:15;100110.16;;;16.95;67.86
63739;BME280;68816;45.558;10.070;2023-05-19T03:13:41;100108.19;;;16.96;68.00
63739;BME280;68816;45.558;10.070;2023-05-19T03:16:07;100109.03;;;16.96;68.17
63739;BME280;68816;45.558;10.070;2023-05-19T03:18:35;100102.06;;;16.89;68.63
63739;BME280;68816;45.558;10.070;2023-05-19T03:21:01;100100.66;;;16.86;69.24
63739;BME280;68816;45.558;10.070;2023-05-19T03:23:26;100087.53;;;16.81;68.60
63739;BME280;68816;45.558;10.070;2023-05-19T03:25:53;100103.69;;;16.79;68.49
63739;BME280;68816;45.558;10.070;2023-05-19T03:28:21;100113.50;;;16.87;70.04
63739;BME280;68816;45.558;10.070;2023-05-19T03:30:51;100100.91;;;16.69;69.75
63739;BME280;68816;45.558;10.070;2023-05-19T03:33:17;100108.69;;;16.72;70.05
63739;BME280;68816;45.558;10.070;2023-05-19T03:35:42;100107.59;;;16.78;70.08
63739;BME280;68816;45.558;10.070;2023-05-19T03:38:08;100104.81;;;16.73;70.12
63739;BME280;68816;45.558;10.070;2023-05-19T03:40:34;100113.19;;;16.73;69.88
63739;BME280;68816;45.558;10.070;2023-05-19T03:42:59;100117.06;;;16.67;70.28
63739;BME280;68816;45.558;10.070;2023-05-19T03:45:25;100111.25;;;16.79;69.48
63739;BME280;68816;45.558;10.070;2023-05-19T03:47:51;100113.75;;;16.75;70.39
63739;BME280;68816;45.558;10.070;2023-05-19T03:50:16;100112.63;;;16.71;71.63
63739;BME280;68816;45.558;10.070;2023-05-19T03:52:42;100117.09;;;16.77;71.55
63739;BME280;68816;45.558;10.070;2023-05-19T03:55:11;100120.72;;;16.73;71.34
63739;BME280;68816;45.558;10.070;2023-05-19T03:57:36;100119.34;;;16.75;72.68
63739;BME280;68816;45.558;10.070;2023-05-19T04:00:05;100126.88;;;16.75;72.03
63739;BME280;68816;45.558;10.070;2023-05-19T04:02:31;100108.16;;;16.65;72.65
63739;BME280;68816;45.558;10.070;2023-05-19T04:04:56;100118.22;;;16.71;73.04
63739;BME280;68816;45.558;10.070;2023-05-19T04:07:22;100116.78;;;16.64;72.43
63739;BME280;68816;45.558;10.070;2023-05-19T04:09:48;100115.38;;;16.61;71.81
63739;BME280;68816;45.558;10.070;2023-05-19T04:12:14;100114.84;;;16.64;70.67
63739;BME280;68816;45.558;10.070;2023-05-19T04:14:39;100123.13;;;16.54;71.82
63739;BME280;68816;45.558;10.070;2023-05-19T04:17:05;100113.63;;;16.45;72.12
63739;BME280;68816;45.558;10.070;2023-05-19T04:19:30;100122.56;;;16.47;72.79
63739;BME280;68816;45.558;10.070;2023-05-19T04:21:56;100128.69;;;16.49;72.21
63739;BME280;68816;45.558;10.070;2023-05-19T04:24:21;100130.50;;;16.65;71.95
63739;BME280;68816;45.558;10.070;2023-05-19T04:26:47;100134.94;;;16.66;71.34
63739;BME280;68816;45.558;10.070;2023-05-19T04:29:13;100128.19;;;16.57;72.26
63739;BME280;68816;45.558;10.070;2023-05-19T04:31:43;100136.81;;;16.51;72.81
63739;BME280;68816;45.558;10.070;2023-05-19T04:34:08;100139.88;;;16.54;71.51
63739;BME280;68816;45.558;10.070;2023-05-19T04:36:34;100139.41;;;16.62;72.40
63739;BME280;68816;45.558;10.070;2023-05-19T04:39:01;100140.44;;;16.56;72.24
63739;BME280;68816;45.558;10.070;2023-05-19T04:41:28;100140.81;;;16.65;71.94
63739;BME280;68816;45.558;10.070;2023-05-19T04:43:53;100142.81;;;16.79;70.61
63739;BME280;68816;45.558;10.070;2023-05-19T04:46:21;100147.28;;;16.80;70.31
63739;BME280;68816;45.558;10.070;2023-05-19T04:48:49;100150.94;;;16.86;70.19
63739;BME280;68816;45.558;10.070;2023-05-19T04:51:15;100149.22;;;16.80;70.35
63739;BME280;68816;45.558;10.070;2023-05-19T04:53:42;100149.25;;;16.85;70.49
63739;BME280;68816;45.558;10.070;2023-05-19T04:56:08;100150.34;;;16.84;70.90
63739;BME280;68816;45.558;10.070;2023-05-19T04:58:33;100125.72;;;16.66;68.77
63739;BME280;68816;45.558;10.070;2023-05-19T05:00:59;100130.53;;;16.86;69.79
63739;BME280;68816;45.558;10.070;2023-05-19T05:03:24;100150.94;;;16.91;68.56
63739;BME280;68816;45.558;10.070;2023-05-19T05:05:50;100154.03;;;17.00;68.67
63739;BME280;68816;45.558;10.070;2023-05-19T05:08:16;100162.09;;;16.91;68.47
63739;BME280;68816;45.558;10.070;2023-05-19T05:10:51;100151.75;;;16.87;67.97
63739;BME280;68816;45.558;10.070;2023-05-19T05:13:19;100138.06;;;16.80;67.30
63739;BME280;68816;45.558;10.070;2023-05-19T05:16:10;100162.97;;;17.02;67.14
63739;BME280;68816;45.558;10.070;2023-05-19T05:19:08;100176.38;;;16.95;67.07
63739;BME280;68816;45.558;10.070;2023-05-19T05:21:50;100164.31;;;16.89;66.56
63739;BME280;68816;45.558;10.070;2023-05-19T05:24:16;100166.28;;;16.83;67.38
63739;BME280;68816;45.558;10.070;2023-05-19T05:26:42;100170.22;;;16.88;67.02
63739;BME280;68816;45.558;10.070;2023-05-19T05:29:08;100155.06;;;16.73;65.10
63739;BME280;68816;45.558;10.070;2023-05-19T05:31:33;100165.75;;;16.87;65.54
63739;BME280;68816;45.558;10.070;2023-05-19T05:33:59;100169.91;;;16.89;65.38
63739;BME280;68816;45.558;10.070;2023-05-19T05:36:25;100173.53;;;16.84;64.37
63739;BME280;68816;45.558;10.070;2023-05-19T05:38:50;100164.63;;;16.82;64.25
63739;BME280;68816;45.558;10.070;2023-05-19T05:41:16;100170.16;;;16.72;64.85
63739;BME280;68816;45.558;10.070;2023-05-19T05:43:41;100166.00;;;16.80;64.74
63739;BME280;68816;45.558;10.070;2023-05-19T05:46:07;100164.91;;;16.86;65.32
63739;BME280;68816;45.558;10.070;2023-05-19T05:48:33;100171.28;;;16.76;65.10
63739;BME280;68816;45.558;10.070;2023-05-19T05:51:02;100165.16;;;16.79;64.47
63739;BME280;68816;45.558;10.070;2023-05-19T05:53:36;100158.09;;;16.62;64.40
63739;BME280;68816;45.558;10.070;2023-05-19T05:56:17;100163.16;;;16.70;65.16
63739;BME280;68816;45.558;10.070;2023-05-19T05:58:47;100178.84;;;16.76;65.17
63739;BME280;68816;45.558;10.070;2023-05-19T06:01:14;100184.13;;;16.77;64.66
63739;BME280;68816;45.558;10.070;2023-05-19T06:03:42;100187.25;;;16.96;63.93
63739;BME280;68816;45.558;10.070;2023-05-19T06:06:09;100184.19;;;16.88;65.05
63739;BME280;68816;45.558;10.070;2023-05-19T06:08:36;100164.91;;;17.01;65.29
63739;BME280;68816;45.558;10.070;2023-05-19T06:11:02;100163.53;;;16.94;64.72
63739;BME280;68816;45.558;10.070;2023-05-19T06:13:34;100177.50;;;16.94;64.58
63739;BME280;68816;45.558;10.070;2023-05-19T06:16:00;100185.88;;;16.99;64.41
63739;BME280;68816;45.558;10.070;2023-05-19T06:18:26;100188.09;;;16.97;64.36
63739;BME280;68816;45.558;10.070;2023-05-19T06:20:52;100191.47;;;17.04;62.56
63739;BME280;68816;45.558;10.070;2023-05-19T06:23:17;100193.19;;;17.10;62.06
63739;BME280;68816;45.558;10.070;2023-05-19T06:25:43;100189.81;;;17.03;63.74
63739;BME280;68816;45.558;10.070;2023-05-19T06:28:08;100195.06;;;16.89;63.12
63739;BME280;68816;45.558;10.070;2023-05-19T06:30:34;100187.84;;;17.03;63.08
63739;BME280;68816;45.558;10.070;2023-05-19T06:33:01;100197.69;;;17.21;63.89
63739;BME280;68816;45.558;10.070;2023-05-19T06:35:27;100192.63;;;17.13;64.09
63739;BME280;68816;45.558;10.070;2023-05-19T06:37:52;100199.31;;;17.07;64.79
63739;BME280;68816;45.558;10.070;2023-05-19T06:40:20;100196.84;;;17.20;64.32
63739;BME280;68816;45.558;10.070;2023-05-19T06:42:45;100193.78;;;17.32;63.79
63739;BME280;68816;45.558;10.070;2023-05-19T06:45:11;100192.91;;;17.16;63.06
63739;BME280;68816;45.558;10.070;2023-05-19T06:47:36;100207.75;;;17.22;61.50
63739;BME280;68816;45.558;10.070;2023-05-19T06:50:41;100211.06;;;17.14;62.62
63739;BME280;68816;45.558;10.070;2023-05-19T06:54:21;100203.25;;;17.11;59.78
63739;BME280;68816;45.558;10.070;2023-05-19T06:56:54;100174.69;;;16.89;59.54
63739;BME280;68816;45.558;10.070;2023-05-19T06:59:54;100176.66;;;16.98;59.51
63739;BME280;68816;45.558;10.070;2023-05-19T07:02:37;100207.22;;;17.35;58.16
63739;BME280;68816;45.558;10.070;2023-05-19T07:05:21;100215.63;;;17.50;60.45
63739;BME280;68816;45.558;10.070;2023-05-19T07:08:38;100153.72;;;16.91;59.71
63739;BME280;68816;45.558;10.070;2023-05-19T07:11:47;100212.25;;;17.43;60.49
63739;BME280;68816;45.558;10.070;2023-05-19T07:14:18;100172.78;;;17.19;60.33
63739;BME280;68816;45.558;10.070;2023-05-19T07:17:03;100211.19;;;17.64;60.48
63739;BME280;68816;45.558;10.070;2023-05-19T07:19:29;100221.78;;;17.57;60.20
63739;BME280;68816;45.558;10.070;2023-05-19T07:21:55;100215.03;;;17.53;59.29
63739;BME280;68816;45.558;10.070;2023-05-19T07:24:21;100218.69;;;17.49;59.53
63739;BME280;68816;45.558;10.070;2023-05-19T07:26:47;100214.78;;;17.50;59.68
63739;BME280;68816;45.558;10.070;2023-05-19T07:29:12;100220.44;;;17.70;58.01
63739;BME280;68816;45.558;10.070;2023-05-19T07:31:38;100221.81;;;17.68;58.15
63739;BME280;68816;45.558;10.070;2023-05-19T07:34:04;100216.50;;;17.66;58.21
63739;BME280;68816;45.558;10.070;2023-05-19T07:36:30;100208.94;;;17.77;58.21
63739;BME280;68816;45.558;10.070;2023-05-19T07:38:55;100204.47;;;17.86;58.71
63739;BME280;68816;45.558;10.070;2023-05-19T07:41:22;100212.88;;;17.91;57.51
63739;BME280;68816;45.558;10.070;2023-05-19T07:43:48;100194.41;;;17.90;57.32
63739;BME280;68816;45.558;10.070;2023-05-19T07:46:14;100207.28;;;18.11;57.17
63739;BME280;68816;45.558;10.070;2023-05-19T07:48:39;100207.25;;;18.16;57.23
63739;BME280;68816;45.558;10.070;2023-05-19T07:51:05;100189.63;;;18.05;57.43
63739;BME280;68816;45.558;10.070;2023-05-19T07:53:34;100207.78;;;18.23;56.91
63739;BME280;68816;45.558;10.070;2023-05-19T07:56:01;100218.69;;;18.35;57.17
63739;BME280;68816;45.558;10.070;2023-05-19T07:58:29;100193.53;;;18.20;56.05
63739;BME280;68816;45.558;10.070;2023-05-19T08:00:58;100217.00;;;18.39;55.55
63739;BME280;68816;45.558;10.070;2023-05-19T08:03:24;100205.22;;;18.42;55.46
63739;BME280;68816;45.558;10.070;2023-05-19T08:05:51;100208.31;;;18.51;55.31
63739;BME280;68816;45.558;10.070;2023-05-19T08:08:17;100217.53;;;18.66;55.24
63739;BME280;68816;45.558;10.070;2023-05-19T08:10:45;100175.81;;;18.50;55.23
63739;BME280;68816;45.558;10.070;2023-05-19T08:13:10;100205.69;;;18.84;56.33
63739;BME280;68816;45.558;10.070;2023-05-19T08:15:36;100150.88;;;18.63;55.04
63739;BME280;68816;45.558;10.070;2023-05-19T08:18:02;100207.03;;;18.97;53.95
63739;BME280;68816;45.558;10.070;2023-05-19T08:20:30;100214.78;;;19.15;55.48
63739;BME280;68816;45.558;10.070;2023-05-19T08:22:56;100201.94;;;19.09;53.70
63739;BME280;68816;45.558;10.070;2023-05-19T08:25:23;100186.50;;;19.07;54.38
63739;BME280;68816;45.558;10.070;2023-05-19T08:27:49;100208.84;;;19.22;55.69
63739;BME280;68816;45.558;10.070;2023-05-19T08:30:16;100177.00;;;19.03;53.99
63739;BME280;68816;45.558;10.070;2023-05-19T08:32:42;100215.13;;;18.99;53.12
63739;BME280;68816;45.558;10.070;2023-05-19T08:35:09;100212.63;;;18.97;53.94
63739;BME280;68816;45.558;10.070;2023-05-19T08:37:36;100206.50;;;18.90;54.71
63739;BME280;68816;45.558;10.070;2023-05-19T08:40:03;100213.75;;;18.96;53.65
63739;BME280;68816;45.558;10.070;2023-05-19T08:42:29;100210.69;;;18.93;54.17
63739;BME280;68816;45.558;10.070;2023-05-19T08:44:57;100209.84;;;18.87;54.85
63739;BME280;68816;45.558;10.070;2023-05-19T08:47:23;100215.47;;;18.87;54.80
63739;BME280;68816;45.558;10.070;2023-05-19T08:49:52;100217.72;;;18.85;54.42
63739;BME280;68816;45.558;10.070;2023-05-19T08:52:40;100219.09;;;18.87;53.51
63739;BME280;68816;45.558;10.070;2023-05-19T08:55:17;100148.06;;;18.63;54.25
63739;BME280;68816;45.558;10.070;2023-05-19T08:57:50;100219.34;;;19.01;53.80
63739;BME280;68816;45.558;10.070;2023-05-19T09:00:17;100196.66;;;18.98;54.49
63739;BME280;68816;45.558;10.070;2023-05-19T09:02:46;100166.47;;;18.79;54.00
63739;BME280;68816;45.558;10.070;2023-05-19T09:05:15;100155.03;;;18.71;54.38
63739;BME280;68816;45.558;10.070;2023-05-19T09:07:46;100210.91;;;19.06;54.57
63739;BME280;68816;45.558;10.070;2023-05-19T09:10:12;100218.25;;;18.87;53.34
63739;BME280;68816;45.558;10.070;2023-05-19T09:12:41;100210.88;;;19.11;53.99
63739;BME280;68816;45.558;10.070;2023-05-19T09:15:10;100210.88;;;19.11;53.34
63739;BME280;68816;45.558;10.070;2023-05-19T09:17:36;100214.25;;;19.08;53.20
63739;BME280;68816;45.558;10.070;2023-05-19T09:20:03;100205.56;;;19.05;53.37
63739;BME280;68816;45.558;10.070;2023-05-19T09:22:31;100219.09;;;18.93;53.13
63739;BME280;68816;45.558;10.070;2023-05-19T09:24:59;100190.81;;;18.89;53.47
63739;BME280;68816;45.558;10.070;2023-05-19T09:27:25;100187.44;;;18.92;54.45
63739;BME280;68816;45.558;10.070;2023-05-19T09:29:51;100212.31;;;18.99;53.40
63739;BME280;68816;45.558;10.070;2023-05-19T09:32:24;100213.44;;;19.03;53.49
63739;BME280;68816;45.558;10.070;2023-05-19T09:34:51;100211.72;;;19.12;53.96
63739;BME280;68816;45.558;10.070;2023-05-19T09:37:23;100206.38;;;19.15;54.08
63739;BME280;68816;45.558;10.070;2023-05-19T09:39:50;100208.06;;;19.11;53.34
63739;BME280;68816;45.558;10.070;2023-05-19T09:42:24;100210.66;;;19.03;53.54
63739;BME280;68816;45.558;10.070;2023-05-19T09:44:58;100203.34;;;19.02;54.20
63739;BME280;68816;45.558;10.070;2023-05-19T09:47:35;100213.72;;;19.01;53.63
63739;BME280;68816;45.558;10.070;2023-05-19T09:50:08;100180.16;;;18.91;53.18
63739;BME280;68816;45.558;10.070;2023-05-19T09:52:44;100208.91;;;19.12;53.83
63739;BME280;68816;45.558;10.070;2023-05-19T09:55:14;100208.03;;;19.21;53.81
63739;BME280;68816;45.558;10.070;2023-05-19T09:57:39;100211.56;;;19.37;52.47
63739;BME280;68816;45.558;10.070;2023-05-19T10:00:06;100199.47;;;19.42;52.62
63739;BME280;68816;45.558;10.070;2023-05-19T10:02:47;100208.59;;;19.67;52.56
63739;BME280;68816;45.558;10.070;2023-05-19T10:05:17;100199.09;;;19.58;51.24
63739;BME280;68816;45.558;10.070;2023-05-19T10:07:54;100203.69;;;19.83;51.74
63739;BME280;68816;45.558;10.070;2023-05-19T10:10:34;100196.66;;;19.86;52.41
63739;BME280;68816;45.558;10.070;2023-05-19T10:13:13;100199.06;;;19.97;50.46
63739;BME280;68816;45.558;10.070;2023-05-19T10:15:59;100187.25;;;20.00;50.73
63739;BME280;68816;45.558;10.070;2023-05-19T10:18:49;100190.09;;;20.24;50.62
63739;BME280;68816;45.558;10.070;2023-05-19T10:21:17;100188.59;;;20.37;50.52
63739;BME280;68816;45.558;10.070;2023-05-19T10:23:42;100189.59;;;20.46;49.10
63739;BME280;68816;45.558;10.070;2023-05-19T10:26:18;100185.97;;;20.69;49.46
63739;BME280;68816;45.558;10.070;2023-05-19T10:28:49;100192.41;;;20.94;50.41
63739;BME280;68816;45.558;10.070;2023-05-19T10:31:18;100184.28;;;21.11;49.90
63739;BME280;68816;45.558;10.070;2023-05-19T10:34:04;100188.16;;;21.20;48.50
63739;BME280;68816;45.558;10.070;2023-05-19T10:36:45;100187.25;;;21.24;48.31
63739;BME280;68816;45.558;10.070;2023-05-19T10:39:24;100187.38;;;21.33;47.99
63739;BME280;68816;45.558;10.070;2023-05-19T10:45:14;100189.22;;;21.24;47.28
63739;BME280;68816;45.558;10.070;2023-05-19T10:47:42;100189.81;;;21.21;48.23
63739;BME280;68816;45.558;10.070;2023-05-19T10:50:09;100181.44;;;21.16;47.70
63739;BME280;68816;45.558;10.070;2023-05-19T10:52:39;100184.97;;;21.03;47.53
63739;BME280;68816;45.558;10.070;2023-05-19T10:55:08;100177.00;;;21.10;47.91
63739;BME280;68816;45.558;10.070;2023-05-19T10:57:52;100179.63;;;21.25;49.19
63739;BME280;68816;45.558;10.070;2023-05-19T11:00:31;100177.50;;;21.17;47.71
63739;BME280;68816;45.558;10.070;2023-05-19T11:03:15;100126.06;;;20.92;48.16
63739;BME280;68816;45.558;10.070;2023-05-19T11:05:43;100159.28;;;21.09;48.09
63739;BME280;68816;45.558;10.070;2023-05-19T11:08:12;100150.63;;;21.06;48.29
63739;BME280;68816;45.558;10.070;2023-05-19T11:10:55;100156.28;;;21.24;47.48
63739;BME280;68816;45.558;10.070;2023-05-19T11:13:25;100147.31;;;21.22;47.65
63739;BME280;68816;45.558;10.070;2023-05-19T11:15:54;100165.97;;;21.37;47.75
63739;BME280;68816;45.558;10.070;2023-05-19T11:18:21;100159.88;;;21.30;46.14
63739;BME280;68816;45.558;10.070;2023-05-19T11:20:59;100168.38;;;21.25;47.70
63739;BME280;68816;45.558;10.070;2023-05-19T11:23:26;100167.00;;;21.41;47.51
63739;BME280;68816;45.558;10.070;2023-05-19T11:26:00;100154.47;;;21.34;47.09
63739;BME280;68816;45.558;10.070;2023-05-19T11:28:29;100130.47;;;20.99;49.31
63739;BME280;68816;45.558;10.070;2023-05-19T11:30:56;100154.16;;;21.16;49.94
63739;BME280;68816;45.558;10.070;2023-05-19T11:33:30;100163.44;;;21.17;50.46
63739;BME280;68816;45.558;10.070;2023-05-19T11:36:01;100157.00;;;21.11;50.04
63739;BME280;68816;45.558;10.070;2023-05-19T11:38:27;100156.31;;;21.01;49.41
63739;BME280;68816;45.558;10.070;2023-05-19T11:40:54;100163.00;;;21.05;49.34
63739;BME280;68816;45.558;10.070;2023-05-19T11:43:24;100149.59;;;21.20;47.15
63739;BME280;68816;45.558;10.070;2023-05-19T11:45:50;100152.91;;;21.04;46.78
63739;BME280;68816;45.558;10.070;2023-05-19T11:48:15;100150.22;;;20.94;46.30
63739;BME280;68816;45.558;10.070;2023-05-19T11:50:46;100152.38;;;21.02;46.90
63739;BME280;68816;45.558;10.070;2023-05-19T11:53:12;100150.16;;;20.99;46.11
63739;BME280;68816;45.558;10.070;2023-05-19T11:55:44;100136.41;;;20.78;46.25
63739;BME280;68816;45.558;10.070;2023-05-19T11:58:31;100149.00;;;20.57;46.49
63739;BME280;68816;45.558;10.070;2023-05-19T12:01:02;100158.41;;;20.47;49.41
63739;BME280;68816;45.558;10.070;2023-05-19T12:03:34;100161.72;;;19.68;58.09
63739;BME280;68816;45.558;10.070;2023-05-19T12:06:04;100164.16;;;19.36;60.37
63739;BME280;68816;45.558;10.070;2023-05-19T12:08:34;100151.22;;;19.01;61.12
63739;BME280;68816;45.558;10.070;2023-05-19T12:10:59;100162.88;;;19.18;61.36
63739;BME280;68816;45.558;10.070;2023-05-19T12:13:25;100155.84;;;19.25;61.04
63739;BME280;68816;45.558;10.070;2023-05-19T12:15:52;100108.16;;;18.81;61.53
63739;BME280;68816;45.558;10.070;2023-05-19T12:18:28;100138.41;;;18.90;61.13
63739;BME280;68816;45.558;10.070;2023-05-19T12:20:53;100144.25;;;18.98;61.73
63739;BME280;68816;45.558;10.070;2023-05-19T12:23:19;100153.81;;;18.87;62.96
63739;BME280;68816;45.558;10.070;2023-05-19T12:25:45;100166.16;;;18.91;63.55
63739;BME280;68816;45.558;10.070;2023-05-19T12:28:10;100164.41;;;19.00;63.07
63739;BME280;68816;45.558;10.070;2023-05-19T12:30:36;100158.88;;;18.85;63.58
63739;BME280;68816;45.558;10.070;2023-05-19T12:33:03;100166.78;;;18.73;63.03
63739;BME280;68816;45.558;10.070;2023-05-19T12:35:30;100164.22;;;18.81;62.25
63739;BME280;68816;45.558;10.070;2023-05-19T12:38:02;100163.72;;;18.74;62.75
63739;BME280;68816;45.558;10.070;2023-05-19T12:40:28;100162.91;;;18.59;63.00
63739;BME280;68816;45.558;10.070;2023-05-19T12:43:02;100151.69;;;18.69;63.29
63739;BME280;68816;45.558;10.070;2023-05-19T12:45:42;100182.53;;;18.48;64.00
63739;BME280;68816;45.558;10.070;2023-05-19T12:48:10;100173.28;;;18.48;64.11
63739;BME280;68816;45.558;10.070;2023-05-19T12:50:37;100170.28;;;18.34;64.69
63739;BME280;68816;45.558;10.070;2023-05-19T12:53:07;100170.78;;;18.52;65.56
63739;BME280;68816;45.558;10.070;2023-05-19T12:55:40;100164.63;;;18.44;66.11
63739;BME280;68816;45.558;10.070;2023-05-19T12:58:11;100174.13;;;18.48;67.83
63739;BME280;68816;45.558;10.070;2023-05-19T13:00:45;100167.41;;;18.50;65.41
63739;BME280;68816;45.558;10.070;2023-05-19T13:03:31;100160.41;;;18.47;65.79
63739;BME280;68816;45.558;10.070;2023-05-19T13:05:57;100167.41;;;18.55;67.16
63739;BME280;68816;45.558;10.070;2023-05-19T13:08:24;100169.13;;;18.45;65.34
63739;BME280;68816;45.558;10.070;2023-05-19T13:10:50;100162.16;;;18.33;66.66
63739;BME280;68816;45.558;10.070;2023-05-19T13:13:15;100172.22;;;18.29;66.67